Time;durP1;ratioP1;P1;durP2;ratioP2;P2;SDS_P1;SDS_P2;PMS_P1;PMS_P2;Temp;Humidity;BMP_temperature;BMP_pressure;BME280_temperature;BME280_humidity;BME280_pressure;Samples;Min_cycle;Max_cycle;Signal;HPM_P1;HPM_P2
2022/10/12 00:01:39;;;;;;;9.27;4.35;;;9.00;99.90;;;;;;5139887;27;20053;-79
2022/10/12 00:04:05;;;;;;;11.82;4.63;;;8.40;99.90;;;;;;5138956;27;20022;-79
2022/10/12 00:06:31;;;;;;;12.20;4.70;;;9.00;99.90;;;;;;5139071;27;20394;-79
2022/10/12 00:08:56;;;;;;;8.07;4.25;;;8.30;99.90;;;;;;5104417;27;20046;-79
2022/10/12 00:11:26;;;;;;;10.70;4.93;;;8.30;99.90;;;;;;5138897;27;20117;-79
2022/10/12 00:13:52;;;;;;;8.30;4.43;;;8.30;99.90;;;;;;5155826;27;20525;-79
2022/10/12 00:16:20;;;;;;;11.05;4.75;;;8.30;99.90;;;;;;5119218;27;20078;-79
2022/10/12 00:18:53;;;;;;;7.22;4.03;;;8.30;99.90;;;;;;5135789;27;20098;-79
2022/10/12 00:21:20;;;;;;;8.80;3.92;;;8.30;99.90;;;;;;5155577;27;20038;-79
2022/10/12 00:23:46;;;;;;;6.40;4.18;;;8.30;99.90;;;;;;5118170;27;20035;-79
2022/10/12 00:26:18;;;;;;;8.80;4.20;;;8.30;99.90;;;;;;5120766;27;20438;-80
2022/10/12 00:28:44;;;;;;;7.75;4.20;;;8.30;99.90;;;;;;5155135;27;20073;-79
2022/10/12 00:31:13;;;;;;;8.25;4.32;;;8.30;99.90;;;;;;5137654;27;20062;-79
2022/10/12 00:33:40;;;;;;;5.50;4.10;;;8.30;99.90;;;;;;5137363;27;20099;-79
2022/10/12 00:36:13;;;;;;;9.63;4.65;;;8.30;99.90;;;;;;5154132;27;20050;-79
2022/10/12 00:38:38;;;;;;;7.50;4.38;;;8.30;99.90;;;;;;5137543;27;20038;-79
2022/10/12 00:41:04;;;;;;;8.25;4.32;;;8.30;99.90;;;;;;5120577;27;20046;-79
2022/10/12 00:43:33;;;;;;;7.05;4.63;;;8.30;99.90;;;;;;5137737;27;20031;-79
2022/10/12 00:46:00;;;;;;;7.72;4.82;;;8.30;99.90;;;;;;5136140;27;20068;-79
2022/10/12 00:48:26;;;;;;;8.50;4.05;;;8.90;99.90;;;;;;5117338;27;20034;-79
2022/10/12 00:50:53;;;;;;;9.45;4.35;;;8.80;99.90;;;;;;5100413;27;20432;-79
2022/10/12 00:53:25;;;;;;;9.23;4.85;;;8.60;99.90;;;;;;5133758;27;20038;-79
2022/10/12 00:55:58;;;;;;;8.48;4.43;;;8.30;99.90;;;;;;5138456;27;20038;-79
2022/10/12 00:58:24;;;;;;;6.45;4.28;;;8.10;99.90;;;;;;5137696;27;20042;-79
2022/10/12 01:00:50;;;;;;;8.70;4.80;;;8.10;99.90;;;;;;5136765;27;20061;-79
2022/10/12 01:03:20;;;;;;;7.53;4.60;;;8.10;99.90;;;;;;5120163;27;20034;-79
2022/10/12 01:05:45;;;;;;;8.02;4.40;;;8.10;99.90;;;;;;5154760;27;20546;-79
2022/10/12 01:08:11;;;;;;;9.38;4.15;;;8.10;99.90;;;;;;5136537;27;20043;-79
2022/10/12 01:10:37;;;;;;;8.93;4.40;;;8.10;99.90;;;;;;5120589;27;20125;-79
2022/10/12 01:13:03;;;;;;;7.47;3.97;;;8.00;99.90;;;;;;5118531;27;20047;-79
2022/10/12 01:15:35;;;;;;;8.07;4.00;;;8.00;99.90;;;;;;5115449;28;20035;-79
2022/10/12 01:18:34;;;;;;;10.63;4.40;;;8.20;99.90;;;;;;5127109;27;20049;-79
2022/10/12 01:21:17;;;;;;;8.82;4.45;;;8.60;99.90;;;;;;5137415;27;20494;-80
2022/10/12 01:24:04;;;;;;;9.23;4.43;;;7.90;99.90;;;;;;5137560;27;20038;-79
2022/10/12 01:26:42;;;;;;;7.20;3.95;;;8.00;99.90;;;;;;5154777;27;20088;-79
2022/10/12 01:29:56;;;;;;;9.52;4.63;;;8.00;99.90;;;;;;5153421;27;20039;-79
2022/10/12 01:32:33;;;;;;;7.53;4.22;;;8.00;99.90;;;;;;5140700;27;20047;-79
2022/10/12 01:35:02;;;;;;;8.80;4.75;;;8.00;99.90;;;;;;5155157;27;20133;-79
2022/10/12 01:37:52;;;;;;;12.02;4.72;;;8.00;99.90;;;;;;5137383;27;20498;-79
2022/10/12 01:40:29;;;;;;;9.35;4.35;;;8.10;99.90;;;;;;5136740;27;20122;-79
2022/10/12 01:42:57;;;;;;;10.65;4.63;;;8.00;99.90;;;;;;5152791;27;20043;-79
2022/10/12 01:45:23;;;;;;;11.18;4.80;;;8.00;99.90;;;;;;5153800;27;20513;-79
2022/10/12 01:47:52;;;;;;;9.68;5.18;;;8.10;99.90;;;;;;5120244;27;20039;-79
2022/10/12 01:50:20;;;;;;;7.85;5.07;;;8.30;99.90;;;;;;5137297;27;20037;-79
2022/10/12 01:52:58;;;;;;;9.00;4.30;;;8.10;99.90;;;;;;5119607;27;20043;-79
2022/10/12 01:55:35;;;;;;;9.45;4.85;;;8.10;99.90;;;;;;5137632;27;20039;-79
2022/10/12 01:58:10;;;;;;;12.68;5.25;;;8.10;99.90;;;;;;5154175;27;20050;-79
2022/10/12 02:00:51;;;;;;;8.68;5.20;;;8.10;99.90;;;;;;5153887;27;20119;-79
2022/10/12 02:03:44;;;;;;;10.63;5.20;;;8.10;99.90;;;;;;5136652;27;20134;-79
2022/10/12 02:06:14;;;;;;;11.27;4.90;;;8.10;99.90;;;;;;5154497;27;20076;-79
2022/10/12 02:09:04;;;;;;;9.82;5.35;;;9.20;99.90;;;;;;5137139;27;20045;-79
2022/10/12 02:11:33;;;;;;;9.23;4.72;;;8.10;99.90;;;;;;5135742;27;20164;-79
2022/10/12 02:14:07;;;;;;;12.43;5.13;;;8.10;99.90;;;;;;5136269;27;20125;-79
2022/10/12 02:16:39;;;;;;;9.93;5.43;;;8.10;99.90;;;;;;5136552;27;20378;-79
2022/10/12 02:19:09;;;;;;;9.70;4.97;;;8.10;99.90;;;;;;5153707;27;20042;-79
2022/10/12 02:21:36;;;;;;;9.75;4.72;;;8.10;99.90;;;;;;5137156;27;20096;-79
2022/10/12 02:24:06;;;;;;;10.02;5.30;;;8.20;99.90;;;;;;5137074;27;20038;-79
2022/10/12 02:26:36;;;;;;;9.15;5.22;;;8.10;99.90;;;;;;5136425;27;20031;-79
2022/10/12 02:29:04;;;;;;;8.40;5.22;;;8.10;99.90;;;;;;5152828;27;20118;-79
2022/10/12 02:31:45;;;;;;;11.15;5.25;;;8.20;99.90;;;;;;5139296;27;20038;-79
2022/10/12 02:34:21;;;;;;;9.02;4.93;;;8.10;99.90;;;;;;5157441;27;20038;-79
2022/10/12 02:37:08;;;;;;;7.53;5.45;;;8.20;99.90;;;;;;5157444;27;20038;-80
2022/10/12 02:39:49;;;;;;;10.32;4.70;;;8.10;99.90;;;;;;5136341;27;20383;-79
2022/10/12 02:42:20;;;;;;;9.73;5.13;;;8.10;99.90;;;;;;5145001;27;20095;-80
2022/10/12 02:44:47;;;;;;;9.95;5.07;;;8.10;99.90;;;;;;5157103;27;20038;-79
2022/10/12 02:47:14;;;;;;;10.77;5.18;;;8.10;99.90;;;;;;5139190;27;20555;-80
2022/10/12 02:49:42;;;;;;;9.82;5.40;;;8.10;99.90;;;;;;5139504;27;20150;-79
2022/10/12 02:52:08;;;;;;;12.27;5.38;;;8.20;99.90;;;;;;5119327;27;20031;-79
2022/10/12 02:54:35;;;;;;;9.10;5.40;;;8.10;99.90;;;;;;5111903;27;20042;-79
2022/10/12 02:57:00;;;;;;;12.20;5.85;;;8.00;99.90;;;;;;5138059;27;20034;-80
2022/10/12 02:59:26;;;;;;;13.10;6.03;;;8.00;99.90;;;;;;5118762;27;20126;-79
2022/10/12 03:01:52;;;;;;;12.40;5.78;;;8.00;99.90;;;;;;5115322;27;20047;-79
2022/10/12 03:04:17;;;;;;;13.98;5.72;;;8.00;99.90;;;;;;5123257;27;20070;-79
2022/10/12 03:06:43;;;;;;;15.57;5.82;;;8.00;99.90;;;;;;5140647;27;20043;-79
2022/10/12 03:09:09;;;;;;;14.93;5.72;;;8.00;99.90;;;;;;5159472;27;20042;-79
2022/10/12 03:11:36;;;;;;;10.70;5.60;;;7.90;99.90;;;;;;5146081;27;20039;-78
2022/10/12 03:14:02;;;;;;;13.40;6.25;;;8.30;99.90;;;;;;5146379;27;20490;-79
2022/10/12 03:16:28;;;;;;;12.52;6.25;;;7.90;99.90;;;;;;5157954;27;20045;-79
2022/10/12 03:18:54;;;;;;;17.00;6.57;;;7.90;99.90;;;;;;5140769;27;20039;-79
2022/10/12 03:21:19;;;;;;;11.10;5.97;;;7.90;99.90;;;;;;5139932;27;20414;-79
2022/10/12 03:23:45;;;;;;;15.27;5.85;;;7.90;99.90;;;;;;5122899;27;20083;-79
2022/10/12 03:26:11;;;;;;;10.63;5.80;;;7.90;99.90;;;;;;5105961;27;20026;-79
2022/10/12 03:28:37;;;;;;;11.35;5.60;;;7.80;99.90;;;;;;5137816;27;20034;-79
2022/10/12 03:31:03;;;;;;;11.27;5.68;;;7.80;99.90;;;;;;5105137;27;20390;-79
2022/10/12 03:33:28;;;;;;;19.98;6.93;;;7.80;99.90;;;;;;5156755;27;20046;-79
2022/10/12 03:35:54;;;;;;;12.55;6.38;;;9.00;99.90;;;;;;5139388;27;20031;-79
2022/10/12 03:38:20;;;;;;;15.13;5.70;;;7.80;99.90;;;;;;5139102;27;20058;-79
2022/10/12 03:40:46;;;;;;;12.73;5.97;;;7.70;99.90;;;;;;5118035;27;20046;-79
2022/10/12 03:43:12;;;;;;;15.65;6.57;;;7.70;99.90;;;;;;5100178;27;20043;-79
2022/10/12 03:45:38;;;;;;;13.90;6.07;;;7.80;99.90;;;;;;5155728;27;20031;-79
2022/10/12 03:48:06;;;;;;;13.80;6.20;;;7.70;99.90;;;;;;5156098;27;20498;-79
2022/10/12 03:50:33;;;;;;;19.40;6.70;;;8.30;99.90;;;;;;5138644;27;20129;-79
2022/10/12 03:53:00;;;;;;;13.07;6.25;;;7.60;99.90;;;;;;5138651;27;20095;-79
2022/10/12 03:55:25;;;;;;;10.52;6.38;;;7.60;99.90;;;;;;5113836;27;20067;-79
2022/10/12 03:57:51;;;;;;;14.20;6.00;;;7.60;99.90;;;;;;5124752;27;20046;-79
2022/10/12 04:00:17;;;;;;;18.35;6.95;;;7.60;99.90;;;;;;5152722;27;20119;-79
2022/10/12 04:02:43;;;;;;;13.38;5.55;;;7.50;99.90;;;;;;5138076;27;20046;-79
2022/10/12 04:05:08;;;;;;;16.42;5.60;;;8.10;99.90;;;;;;5117402;27;20035;-79
2022/10/12 04:07:34;;;;;;;13.27;5.90;;;7.50;99.90;;;;;;5118480;27;20042;-79
2022/10/12 04:10:00;;;;;;;12.43;5.93;;;8.60;99.90;;;;;;5118103;27;20035;-79
2022/10/12 04:12:26;;;;;;;11.57;6.18;;;7.70;99.90;;;;;;5129497;27;20038;-79
2022/10/12 04:14:52;;;;;;;10.50;5.32;;;7.50;99.90;;;;;;5120200;27;20092;-79
2022/10/12 04:17:17;;;;;;;11.93;5.90;;;7.50;99.90;;;;;;5107530;27;20043;-79
2022/10/12 04:19:43;;;;;;;8.82;5.35;;;7.50;99.90;;;;;;5120395;27;20459;-79
2022/10/12 04:22:09;;;;;;;10.32;5.45;;;7.50;99.90;;;;;;5117829;27;20039;-79
2022/10/12 04:24:35;;;;;;;13.98;5.65;;;7.50;99.90;;;;;;5083721;27;20382;-79
2022/10/12 04:27:01;;;;;;;13.35;5.47;;;8.20;99.90;;;;;;5119246;27;20489;-79
2022/10/12 04:29:26;;;;;;;14.05;5.63;;;7.40;99.90;;;;;;5137804;27;20077;-79
2022/10/12 04:31:52;;;;;;;11.75;6.30;;;7.40;99.90;;;;;;5118663;27;20037;-78
2022/10/12 04:34:18;;;;;;;10.85;5.43;;;7.30;99.90;;;;;;5138431;27;20510;-78
2022/10/12 04:36:44;;;;;;;10.43;5.60;;;7.40;99.90;;;;;;5138261;27;20046;-78
2022/10/12 04:39:10;;;;;;;14.05;5.32;;;7.30;99.90;;;;;;5137325;27;20030;-78
2022/10/12 04:41:35;;;;;;;11.98;5.70;;;7.30;99.90;;;;;;5153939;27;20117;-79
2022/10/12 04:44:01;;;;;;;11.18;5.65;;;7.40;99.90;;;;;;5135952;27;20065;-78
2022/10/12 04:46:27;;;;;;;7.72;4.80;;;7.30;99.90;;;;;;5102911;27;20039;-79
2022/10/12 04:48:53;;;;;;;10.18;5.13;;;7.20;99.90;;;;;;5137235;27;20035;-79
2022/10/12 04:51:18;;;;;;;13.60;4.82;;;7.20;99.90;;;;;;5120548;27;20058;-79
2022/10/12 04:53:44;;;;;;;9.23;5.03;;;7.20;99.90;;;;;;5119496;27;20117;-78
2022/10/12 04:56:10;;;;;;;13.50;5.45;;;7.20;99.90;;;;;;5137449;27;20056;-79
2022/10/12 04:58:36;;;;;;;9.68;5.90;;;7.20;99.90;;;;;;5151148;27;20034;-78
2022/10/12 05:01:02;;;;;;;9.32;5.20;;;7.60;99.90;;;;;;5123231;27;20041;-79
2022/10/12 05:03:27;;;;;;;10.77;5.40;;;7.20;99.90;;;;;;5117384;27;20034;-79
2022/10/12 05:05:53;;;;;;;9.73;4.85;;;7.10;99.90;;;;;;5120083;27;20035;-80
2022/10/12 05:08:19;;;;;;;12.65;5.82;;;7.30;99.90;;;;;;5120601;27;20034;-79
2022/10/12 05:10:46;;;;;;;11.88;4.80;;;7.00;99.90;;;;;;5117466;27;20116;-80
2022/10/12 05:13:12;;;;;;;14.20;4.97;;;7.10;99.90;;;;;;5120286;27;20034;-80
2022/10/12 05:15:37;;;;;;;10.43;5.40;;;7.00;99.90;;;;;;5106339;27;20041;-79
2022/10/12 05:18:03;;;;;;;11.90;5.15;;;7.00;99.90;;;;;;5135212;27;20386;-79
2022/10/12 05:20:29;;;;;;;10.93;5.18;;;6.90;99.90;;;;;;5136873;27;20035;-79
2022/10/12 05:22:56;;;;;;;9.45;5.28;;;6.90;99.90;;;;;;5120067;27;20045;-79
2022/10/12 05:25:22;;;;;;;8.85;4.97;;;6.90;99.90;;;;;;5119525;27;20520;-79
2022/10/12 05:27:48;;;;;;;10.00;5.43;;;7.60;99.90;;;;;;5118975;27;20034;-79
2022/10/12 05:30:14;;;;;;;8.82;4.90;;;6.90;99.90;;;;;;5136721;27;20039;-80
2022/10/12 05:32:40;;;;;;;10.65;5.28;;;6.90;99.90;;;;;;5119513;27;20045;-79
2022/10/12 05:35:06;;;;;;;12.07;4.95;;;6.80;99.90;;;;;;5136060;27;20038;-79
2022/10/12 05:37:33;;;;;;;8.98;4.88;;;6.80;99.90;;;;;;5098893;28;20047;-79
2022/10/12 05:39:58;;;;;;;14.10;5.82;;;6.80;99.90;;;;;;5107542;27;20125;-80
2022/10/12 05:42:24;;;;;;;11.50;5.20;;;6.80;99.90;;;;;;5132381;27;20131;-80
2022/10/12 05:44:50;;;;;;;9.98;5.40;;;6.80;99.90;;;;;;5137496;27;20039;-79
2022/10/12 05:47:15;;;;;;;14.32;6.00;;;6.70;99.90;;;;;;5133556;27;20043;-79
2022/10/12 05:49:41;;;;;;;8.38;5.25;;;6.70;99.90;;;;;;5133981;27;20110;-79
2022/10/12 05:52:07;;;;;;;11.77;5.13;;;6.70;99.90;;;;;;5117922;27;20081;-79
2022/10/12 05:54:32;;;;;;;11.13;4.85;;;6.60;99.90;;;;;;5119641;27;20157;-79
2022/10/12 05:56:58;;;;;;;10.50;5.30;;;6.60;99.90;;;;;;5134186;27;20080;-78
2022/10/12 05:59:24;;;;;;;8.55;4.97;;;6.60;99.90;;;;;;5135379;27;20153;-78
2022/10/12 06:01:49;;;;;;;9.52;5.40;;;7.10;99.90;;;;;;5119438;27;20061;-77
2022/10/12 06:04:15;;;;;;;15.95;5.80;;;6.60;99.90;;;;;;5138406;27;20042;-78
2022/10/12 06:06:41;;;;;;;14.60;6.03;;;6.60;99.90;;;;;;5121113;27;20596;-78
2022/10/12 06:09:07;;;;;;;11.15;4.90;;;6.50;99.90;;;;;;5141583;27;20049;-78
2022/10/12 06:11:33;;;;;;;14.18;5.65;;;6.60;99.90;;;;;;5158447;27;20509;-79
2022/10/12 06:13:58;;;;;;;10.88;5.60;;;6.70;99.90;;;;;;5158061;27;20126;-79
2022/10/12 06:16:24;;;;;;;11.13;5.60;;;6.50;99.90;;;;;;5117053;27;20066;-77
2022/10/12 06:18:50;;;;;;;12.35;5.45;;;6.50;99.90;;;;;;5120403;27;20038;-79
2022/10/12 06:21:15;;;;;;;11.90;5.75;;;6.70;99.90;;;;;;5149147;27;20502;-79
2022/10/12 06:23:41;;;;;;;11.13;5.85;;;6.50;99.90;;;;;;5106318;27;20035;-80
2022/10/12 06:26:07;;;;;;;13.20;5.97;;;7.10;99.90;;;;;;5134128;27;20041;-79
2022/10/12 06:28:32;;;;;;;11.60;6.13;;;6.60;99.90;;;;;;5152034;27;20040;-79
2022/10/12 06:30:59;;;;;;;11.65;5.88;;;6.50;99.90;;;;;;5139708;27;20035;-79
2022/10/12 06:33:26;;;;;;;7.85;5.43;;;6.50;99.90;;;;;;5138104;27;20381;-78
2022/10/12 06:35:52;;;;;;;11.88;6.05;;;6.40;99.90;;;;;;5119139;27;20042;-79
2022/10/12 06:38:18;;;;;;;14.38;6.47;;;6.50;99.90;;;;;;5126084;27;20367;-79
2022/10/12 06:40:44;;;;;;;14.68;6.45;;;6.50;99.90;;;;;;5141237;27;20099;-79
2022/10/12 06:43:10;;;;;;;13.50;6.40;;;6.50;99.90;;;;;;5123135;27;20042;-80
2022/10/12 06:45:36;;;;;;;16.50;6.25;;;6.80;99.90;;;;;;5122477;27;20042;-80
2022/10/12 06:48:03;;;;;;;10.90;6.07;;;6.60;99.90;;;;;;5141012;27;20035;-79
2022/10/12 06:50:29;;;;;;;12.40;6.55;;;6.70;99.90;;;;;;5120006;27;20039;-79
2022/10/12 06:52:55;;;;;;;13.52;6.97;;;6.80;99.90;;;;;;5120022;27;20147;-80
2022/10/12 06:55:21;;;;;;;12.40;6.75;;;7.90;99.90;;;;;;5120911;27;20045;-79
2022/10/12 06:57:46;;;;;;;11.77;7.20;;;6.80;99.90;;;;;;5120245;27;20039;-80
2022/10/12 07:00:13;;;;;;;11.27;7.15;;;7.40;99.90;;;;;;5119407;27;20126;-79
2022/10/12 07:02:39;;;;;;;17.27;8.10;;;7.00;99.90;;;;;;5106234;27;20054;-79
2022/10/12 07:05:06;;;;;;;13.18;7.47;;;7.10;99.90;;;;;;5140622;27;20125;-80
2022/10/12 07:07:33;;;;;;;21.25;8.35;;;7.20;99.90;;;;;;5123353;27;20069;-80
2022/10/12 07:09:59;;;;;;;17.05;8.80;;;7.20;99.90;;;;;;5157506;27;20041;-80
2022/10/12 07:12:25;;;;;;;14.63;8.07;;;7.30;99.90;;;;;;5106630;27;20129;-80
2022/10/12 07:14:51;;;;;;;13.13;8.98;;;7.40;99.90;;;;;;5138250;27;20042;-80
2022/10/12 07:17:16;;;;;;;15.98;8.52;;;7.40;99.90;;;;;;5138936;27;20125;-80
2022/10/12 07:19:42;;;;;;;16.77;8.90;;;7.40;99.90;;;;;;5140189;27;20042;-79
2022/10/12 07:22:08;;;;;;;18.42;9.10;;;7.50;99.90;;;;;;5140137;27;20486;-79
2022/10/12 07:24:36;;;;;;;17.35;9.07;;;8.20;99.90;;;;;;5122570;27;20038;-81
2022/10/12 07:27:04;;;;;;;15.93;9.13;;;7.50;99.90;;;;;;5122987;27;20474;-80
2022/10/12 07:29:31;;;;;;;16.25;8.65;;;7.50;99.90;;;;;;5139732;27;20125;-80
2022/10/12 07:31:57;;;;;;;19.20;9.00;;;7.60;99.90;;;;;;5157454;27;20041;-80
2022/10/12 07:34:24;;;;;;;18.38;8.65;;;7.60;99.90;;;;;;5123028;27;20395;-80
2022/10/12 07:36:50;;;;;;;16.90;8.80;;;7.60;99.90;;;;;;5140886;27;20095;-80
2022/10/12 07:39:15;;;;;;;19.17;8.90;;;7.80;99.90;;;;;;5163835;27;20034;-80
2022/10/12 07:41:41;;;;;;;18.83;9.02;;;7.60;99.90;;;;;;5130284;27;20483;-79
2022/10/12 07:44:07;;;;;;;15.63;9.20;;;7.60;99.90;;;;;;5133652;27;20043;-79
2022/10/12 07:46:33;;;;;;;21.88;8.85;;;7.50;99.90;;;;;;5101357;27;20038;-79
2022/10/12 07:48:59;;;;;;;13.77;8.65;;;7.60;99.90;;;;;;5118466;27;20145;-81
2022/10/12 07:51:24;;;;;;;18.65;8.98;;;8.00;99.90;;;;;;5118149;27;20122;-79
2022/10/12 07:53:50;;;;;;;18.30;9.30;;;7.80;99.90;;;;;;5136106;27;20045;-79
2022/10/12 07:56:16;;;;;;;24.70;9.55;;;7.60;99.90;;;;;;5102100;27;20041;-79
2022/10/12 07:58:50;;;;;;;16.20;9.23;;;7.60;99.90;;;;;;5111783;27;20118;-80
2022/10/12 08:01:17;;;;;;;18.60;9.30;;;7.60;99.90;;;;;;5139554;27;20130;-79
2022/10/12 08:03:43;;;;;;;21.25;9.07;;;7.60;99.90;;;;;;5139747;27;20436;-80
2022/10/12 08:06:10;;;;;;;20.05;9.20;;;7.70;99.90;;;;;;5122489;27;20027;-79
2022/10/12 08:08:36;;;;;;;18.92;9.13;;;7.70;99.90;;;;;;5122188;27;20034;-80
2022/10/12 08:11:03;;;;;;;17.35;9.32;;;7.70;99.90;;;;;;5135796;27;20045;-79
2022/10/12 08:13:29;;;;;;;19.88;8.75;;;7.80;99.90;;;;;;5121643;27;20034;-80
2022/10/12 08:15:55;;;;;;;19.85;9.13;;;7.80;99.90;;;;;;5138867;27;20078;-79
2022/10/12 08:18:20;;;;;;;16.38;8.75;;;7.80;99.90;;;;;;5122313;27;20089;-80
2022/10/12 08:20:46;;;;;;;12.05;8.05;;;7.90;99.90;;;;;;5121623;27;20146;-79
2022/10/12 08:23:12;;;;;;;15.63;8.98;;;8.20;99.90;;;;;;5121490;27;20030;-80
2022/10/12 08:25:37;;;;;;;18.60;9.13;;;8.00;99.90;;;;;;5100528;27;20043;-80
2022/10/12 08:28:04;;;;;;;16.13;8.43;;;8.00;99.90;;;;;;5100891;27;20681;-80
2022/10/12 08:30:29;;;;;;;18.90;9.48;;;8.10;99.90;;;;;;5117992;27;20432;-79
2022/10/12 08:32:55;;;;;;;20.48;8.88;;;8.20;99.90;;;;;;5084177;27;20126;-78
2022/10/12 08:35:21;;;;;;;15.10;8.50;;;8.20;99.90;;;;;;5146643;27;20121;-80
2022/10/12 08:37:47;;;;;;;22.17;8.25;;;9.00;99.90;;;;;;5138204;27;20501;-81
2022/10/12 08:40:18;;;;;;;15.18;8.10;;;8.30;99.90;;;;;;5154804;27;20049;-79
2022/10/12 08:42:58;;;;;;;14.15;7.88;;;8.30;99.90;;;;;;5154578;27;20044;-79
2022/10/12 08:45:45;;;;;;;16.35;7.25;;;8.40;99.90;;;;;;5137059;27;20031;-80
2022/10/12 08:48:42;;;;;;;16.85;7.68;;;8.50;99.90;;;;;;5138215;27;20035;-80
2022/10/12 08:51:16;;;;;;;12.48;6.45;;;8.50;99.90;;;;;;5143573;27;20043;-79
2022/10/12 08:54:04;;;;;;;15.85;7.18;;;8.60;99.90;;;;;;5135335;27;20039;-79
2022/10/12 08:56:29;;;;;;;15.80;6.60;;;8.70;99.90;;;;;;5135916;27;20043;-80
2022/10/12 08:58:55;;;;;;;13.60;6.25;;;8.80;99.90;;;;;;5137003;27;20038;-80
2022/10/12 09:01:27;;;;;;;15.27;6.65;;;8.90;99.90;;;;;;5136515;27;20043;-80
2022/10/12 09:04:11;;;;;;;16.42;6.68;;;9.00;99.90;;;;;;5154361;27;20099;-79
2022/10/12 09:06:54;;;;;;;15.73;6.57;;;9.10;99.90;;;;;;5137899;27;20046;-79
2022/10/12 09:09:41;;;;;;;12.70;6.13;;;9.10;99.90;;;;;;5152141;27;20138;-79
2022/10/12 09:12:42;;;;;;;13.30;6.72;;;9.20;99.90;;;;;;5138135;27;20126;-79
2022/10/12 09:15:20;;;;;;;12.82;5.95;;;9.40;99.90;;;;;;5154972;27;20042;-79
2022/10/12 09:17:51;;;;;;;16.02;6.57;;;9.50;99.90;;;;;;5135750;27;20482;-78
2022/10/12 09:20:18;;;;;;;11.38;6.03;;;9.60;99.90;;;;;;5153431;27;20152;-79
2022/10/12 09:22:52;;;;;;;13.13;6.57;;;9.70;99.90;;;;;;5137384;27;20043;-80
2022/10/12 09:25:23;;;;;;;13.95;6.40;;;9.80;99.90;;;;;;5154173;27;20034;-80
2022/10/12 09:27:49;;;;;;;11.63;5.85;;;9.90;99.90;;;;;;5154690;27;20122;-79
2022/10/12 09:30:16;;;;;;;16.08;6.93;;;10.00;99.90;;;;;;5155028;27;20149;-80
2022/10/12 09:33:07;;;;;;;15.30;6.90;;;10.00;99.90;;;;;;5137797;27;20076;-79
2022/10/12 09:35:33;;;;;;;17.75;7.00;;;10.10;99.90;;;;;;5153401;27;20126;-79
2022/10/12 09:38:00;;;;;;;10.73;5.80;;;10.20;99.90;;;;;;5120289;27;20074;-79
2022/10/12 09:40:31;;;;;;;13.13;6.60;;;10.30;99.90;;;;;;5141861;27;20117;-78
2022/10/12 09:43:00;;;;;;;10.98;6.07;;;10.40;99.90;;;;;;5141558;27;20039;-78
2022/10/12 09:45:28;;;;;;;12.88;5.97;;;10.40;99.90;;;;;;5142622;27;20374;-79
2022/10/12 09:48:17;;;;;;;13.20;5.78;;;10.60;99.90;;;;;;5159374;27;20039;-79
2022/10/12 09:50:57;;;;;;;12.82;5.40;;;10.70;99.90;;;;;;5141183;27;20083;-79
2022/10/12 09:53:27;;;;;;;10.25;5.30;;;10.80;99.90;;;;;;5159397;27;20038;-80
2022/10/12 09:56:25;;;;;;;12.27;5.28;;;10.80;99.90;;;;;;5141446;27;20099;-78
2022/10/12 09:58:57;;;;;;;13.85;4.97;;;10.80;99.90;;;;;;5158697;27;20046;-78
2022/10/12 10:01:28;;;;;;;10.88;5.10;;;10.80;99.90;;;;;;5141055;27;20059;-78
2022/10/12 10:04:22;;;;;;;12.07;5.13;;;10.80;99.90;;;;;;5157890;27;20047;-79
2022/10/12 10:06:48;;;;;;;16.08;6.00;;;10.80;99.90;;;;;;5158626;27;20036;-79
2022/10/12 10:09:34;;;;;;;15.07;5.97;;;10.80;99.90;;;;;;5140360;27;20121;-80
2022/10/12 10:12:12;;;;;;;14.82;5.90;;;10.80;99.90;;;;;;5143561;27;20039;-77
2022/10/12 10:14:42;;;;;;;9.75;4.68;;;10.80;99.90;;;;;;5150273;27;20102;-78
2022/10/12 10:17:13;;;;;;;11.10;4.28;;;10.90;99.90;;;;;;5141497;27;20099;-79
2022/10/12 10:19:39;;;;;;;14.73;4.70;;;11.00;99.90;;;;;;5141026;27;20043;-79
2022/10/12 10:22:08;;;;;;;12.10;4.47;;;11.00;99.90;;;;;;5141280;27;20062;-79
2022/10/12 10:24:33;;;;;;;10.32;4.70;;;11.00;99.90;;;;;;5140571;27;20046;-79
2022/10/12 10:27:02;;;;;;;11.77;5.07;;;11.10;99.90;;;;;;5123314;27;20463;-79
2022/10/12 10:29:33;;;;;;;10.77;4.68;;;11.10;99.90;;;;;;5157433;27;20041;-79
2022/10/12 10:32:27;;;;;;;12.35;4.88;;;11.10;99.90;;;;;;5157534;27;20758;-79
2022/10/12 10:35:11;;;;;;;8.38;4.43;;;11.10;99.90;;;;;;5159091;27;20042;-79
2022/10/12 10:37:56;;;;;;;11.77;4.43;;;11.10;99.90;;;;;;5159430;27;20045;-78
2022/10/12 10:40:40;;;;;;;13.60;4.15;;;11.20;99.90;;;;;;5142478;27;20099;-79
2022/10/12 10:43:30;;;;;;;8.07;4.00;;;11.60;99.90;;;;;;5159789;27;20117;-78
2022/10/12 10:46:21;;;;;;;7.47;4.10;;;11.20;99.90;;;;;;5161770;27;20034;-78
2022/10/12 10:49:00;;;;;;;11.95;4.30;;;11.20;99.90;;;;;;5142100;27;20383;-79
2022/10/12 10:51:51;;;;;;;10.55;4.72;;;11.30;99.90;;;;;;5123201;27;20039;-79
2022/10/12 10:54:23;;;;;;;11.27;4.72;;;11.40;99.90;;;;;;5132832;27;20046;-79
2022/10/12 10:57:02;;;;;;;10.93;3.90;;;11.40;99.90;;;;;;5159858;27;20034;-78
2022/10/12 10:59:55;;;;;;;12.07;4.35;;;11.40;99.90;;;;;;5149151;27;20055;-78
2022/10/12 11:02:37;;;;;;;10.55;4.13;;;11.50;99.90;;;;;;5159533;27;20053;-78
2022/10/12 11:05:12;;;;;;;9.48;4.68;;;11.60;99.90;;;;;;5160002;27;20409;-78
2022/10/12 11:07:54;;;;;;;11.43;4.30;;;11.60;99.90;;;;;;5155723;27;20031;-78
2022/10/12 11:10:34;;;;;;;10.50;4.95;;;11.60;99.90;;;;;;5139455;27;20050;-79
2022/10/12 11:13:21;;;;;;;11.13;4.15;;;11.60;99.90;;;;;;5131838;27;20482;-79
2022/10/12 11:15:57;;;;;;;10.05;4.28;;;11.70;99.90;;;;;;5156156;27;20100;-79
2022/10/12 11:18:56;;;;;;;8.80;3.80;;;11.70;99.90;;;;;;5135463;27;20102;-79
2022/10/12 11:21:25;;;;;;;14.05;4.40;;;11.80;99.90;;;;;;5127463;27;20043;-79
2022/10/12 11:24:01;;;;;;;8.85;3.60;;;11.80;99.90;;;;;;5141274;27;20030;-79
2022/10/12 11:26:28;;;;;;;;;;;11.80;99.90;;;;;;5158075;27;20031;-79
2022/10/12 11:28:58;;;;;;;11.27;3.90;;;11.80;99.90;;;;;;5139989;27;20034;-79
2022/10/12 11:31:38;;;;;;;15.63;4.35;;;11.90;99.90;;;;;;5158834;27;20054;-79
2022/10/12 11:34:11;;;;;;;11.07;4.35;;;12.00;99.90;;;;;;5138410;27;20432;-79
2022/10/12 11:36:41;;;;;;;7.25;3.42;;;12.00;99.90;;;;;;5157929;27;20387;-79
2022/10/12 11:39:35;;;;;;;14.40;4.00;;;12.00;99.90;;;;;;5139831;27;20482;-79
2022/10/12 11:42:04;;;;;;;8.43;3.22;;;12.10;99.90;;;;;;5140308;27;20038;-80
2022/10/12 11:44:38;;;;;;;10.00;4.53;;;12.20;99.90;;;;;;5139224;27;20043;-79
2022/10/12 11:47:16;;;;;;;11.38;3.85;;;12.30;99.90;;;;;;5140866;27;20037;-79
2022/10/12 11:49:54;;;;;;;8.95;4.00;;;12.40;99.90;;;;;;5156853;27;20474;-79
2022/10/12 11:52:21;;;;;;;9.02;3.90;;;12.60;99.90;;;;;;5139263;27;20494;-79
2022/10/12 11:55:03;;;;;;;14.77;4.40;;;12.70;99.90;;;;;;5137606;27;20113;-79
2022/10/12 11:57:33;;;;;;;12.25;4.78;;;12.80;99.90;;;;;;5157440;27;20049;-79
2022/10/12 12:00:06;;;;;;;11.30;4.82;;;12.80;99.90;;;;;;5157809;27;20035;-79
2022/10/12 12:02:39;;;;;;;11.55;4.18;;;12.90;99.90;;;;;;5139739;27;20090;-79
2022/10/12 12:05:11;;;;;;;9.90;5.03;;;12.80;99.90;;;;;;5147142;27;20053;-78
2022/10/12 12:07:47;;;;;;;17.52;4.53;;;12.70;99.90;;;;;;5130911;27;20056;-79
2022/10/12 12:10:30;;;;;;;10.13;4.07;;;12.80;99.90;;;;;;5147124;27;20092;-79
2022/10/12 12:13:16;;;;;;;11.57;4.50;;;12.90;99.90;;;;;;5140873;27;20038;-79
2022/10/12 12:15:48;;;;;;;13.48;4.97;;;12.90;99.90;;;;;;5139330;27;20045;-79
2022/10/12 12:18:21;;;;;;;13.70;4.57;;;13.00;99.90;;;;;;5138172;27;20095;-79
2022/10/12 12:20:47;;;;;;;13.70;5.40;;;13.00;99.90;;;;;;5156165;27;20118;-79
2022/10/12 12:23:25;;;;;;;11.50;5.13;;;13.10;99.90;;;;;;5156469;27;20115;-79
2022/10/12 12:26:04;;;;;;;11.07;5.15;;;13.10;99.90;;;;;;5137717;27;20038;-79
2022/10/12 12:28:31;;;;;;;11.98;5.70;;;13.10;99.90;;;;;;5136805;27;20118;-79
2022/10/12 12:31:01;;;;;;;10.48;5.43;;;13.10;99.90;;;;;;5104019;27;20390;-79
2022/10/12 12:33:37;;;;;;;13.70;5.95;;;13.10;99.90;;;;;;5137378;27;20033;-79
2022/10/12 12:36:12;;;;;;;13.10;5.60;;;13.20;99.90;;;;;;5155514;27;20046;-79
2022/10/12 12:38:44;;;;;;;14.40;5.93;;;13.20;99.90;;;;;;5138433;27;20486;-79
2022/10/12 12:41:13;;;;;;;13.73;4.90;;;13.30;99.90;;;;;;5155861;27;20042;-80
2022/10/12 12:43:52;;;;;;;14.10;4.95;;;13.30;99.90;;;;;;5154005;27;20127;-80
2022/10/12 12:46:19;;;;;;;12.27;5.32;;;13.40;99.90;;;;;;5154539;27;20118;-79
2022/10/12 12:48:44;;;;;;;11.23;5.65;;;13.40;99.90;;;;;;5138227;27;20034;-79
2022/10/12 12:51:12;;;;;;;16.40;5.78;;;13.50;99.90;;;;;;5138214;27;20031;-79
2022/10/12 12:53:42;;;;;;;15.15;5.80;;;13.50;99.90;;;;;;5132436;27;20031;-78
2022/10/12 12:56:13;;;;;;;14.80;5.68;;;13.60;99.90;;;;;;5113267;27;20071;-79
2022/10/12 12:59:02;;;;;;;12.68;5.07;;;13.60;99.90;;;;;;5144585;27;20162;-79
2022/10/12 13:01:56;;;;;;;16.77;6.03;;;13.80;99.90;;;;;;5145429;27;20043;-79
2022/10/12 13:04:29;;;;;;;12.93;5.53;;;13.80;99.90;;;;;;5152236;27;20134;-78
2022/10/12 13:07:00;;;;;;;12.98;5.65;;;13.80;99.90;;;;;;5143072;27;20050;-79